Time;durP1;ratioP1;P1;durP2;ratioP2;P2;SDS_P1;SDS_P2;PMS_P1;PMS_P2;Temp;Humidity;BMP_temperature;BMP_pressure;BME280_temperature;BME280_humidity;BME280_pressure;Samples;Min_cycle;Max_cycle;Signal;HPM_P1;HPM_P2
2022/04/22 00:00:12;;;;;;;9.65;5.65;;;13.90;46.60;;;;;;4978200;28;20074;-42
2022/04/22 00:02:39;;;;;;;7.75;5.35;;;13.80;46.60;;;;;;4977315;28;20063;-42
2022/04/22 00:05:09;;;;;;;8.95;5.40;;;13.80;46.60;;;;;;4978463;28;20069;-42
2022/04/22 00:07:36;;;;;;;8.55;5.80;;;13.80;46.70;;;;;;4981869;28;20058;-42
2022/04/22 00:10:05;;;;;;;8.00;5.63;;;13.80;46.80;;;;;;4983079;28;20066;-45
2022/04/22 00:12:33;;;;;;;12.10;6.55;;;13.80;46.90;;;;;;4980921;28;20062;-42
2022/04/22 00:15:00;;;;;;;8.57;5.20;;;13.70;47.10;;;;;;4985179;28;20069;-42
2022/04/22 00:17:28;;;;;;;8.55;5.85;;;13.70;47.10;;;;;;4982463;28;20073;-43
2022/04/22 00:19:55;;;;;;;9.15;5.55;;;13.60;47.10;;;;;;4982355;28;20066;-42
2022/04/22 00:22:24;;;;;;;8.35;6.32;;;13.60;47.30;;;;;;4981487;28;20062;-42
2022/04/22 00:24:53;;;;;;;8.32;5.95;;;13.60;47.30;;;;;;4982763;28;20055;-41
2022/04/22 00:27:21;;;;;;;10.60;5.55;;;13.60;47.40;;;;;;4981951;28;20055;-42
2022/04/22 00:29:48;;;;;;;7.80;5.68;;;13.50;47.30;;;;;;4983574;28;20070;-42
2022/04/22 00:32:16;;;;;;;7.57;4.95;;;13.50;47.30;;;;;;4979306;28;20406;-42
2022/04/22 00:34:43;;;;;;;8.13;5.65;;;13.50;47.30;;;;;;4983378;28;20069;-42
2022/04/22 00:37:10;;;;;;;9.27;5.57;;;13.40;47.40;;;;;;4982590;28;20061;-42
2022/04/22 00:39:39;;;;;;;10.10;6.40;;;13.40;47.50;;;;;;4984251;28;20065;-41
2022/04/22 00:42:10;;;;;;;8.27;5.90;;;13.40;47.60;;;;;;4981296;28;20061;-41
2022/04/22 00:44:38;;;;;;;10.23;6.50;;;13.40;47.70;;;;;;4983327;28;20065;-42
2022/04/22 00:47:05;;;;;;;8.70;6.25;;;13.40;47.70;;;;;;4982784;28;20054;-42
2022/04/22 00:49:33;;;;;;;9.55;6.15;;;13.30;47.80;;;;;;4980408;28;20069;-47
2022/04/22 00:52:01;;;;;;;13.50;7.13;;;13.30;47.90;;;;;;4979891;28;20058;-44
2022/04/22 00:54:30;;;;;;;12.32;7.38;;;13.30;48.00;;;;;;4983866;28;20529;-42
2022/04/22 00:57:00;;;;;;;9.10;6.50;;;13.30;48.20;;;;;;4981761;28;20087;-43
2022/04/22 00:59:32;;;;;;;10.13;6.10;;;13.20;48.10;;;;;;4982762;28;20054;-41
2022/04/22 01:01:59;;;;;;;10.05;6.50;;;13.20;48.10;;;;;;4981128;28;20050;-41
2022/04/22 01:09:57;;;;;;;10.73;6.75;;;13.20;48.10;;;;;;4989241;28;20065;-42
2022/04/22 01:12:30;;;;;;;9.05;6.38;;;13.10;48.10;;;;;;4979721;28;20058;-45
2022/04/22 01:14:58;;;;;;;8.85;5.85;;;13.10;48.20;;;;;;4981838;28;20058;-42
2022/04/22 01:17:26;;;;;;;9.57;6.45;;;13.00;48.20;;;;;;4981849;28;20046;-42
2022/04/22 01:19:55;;;;;;;9.75;6.60;;;13.00;48.20;;;;;;4981518;28;20512;-43
2022/04/22 01:22:24;;;;;;;12.93;7.38;;;12.90;48.80;;;;;;4978331;28;20065;-44
2022/04/22 01:24:57;;;;;;;11.70;7.53;;;12.90;48.60;;;;;;4983348;28;20062;-44
2022/04/22 01:27:26;;;;;;;10.77;7.47;;;12.90;48.60;;;;;;4981986;28;20046;-43
2022/04/22 01:29:54;;;;;;;12.88;8.15;;;12.80;48.60;;;;;;4983324;28;20054;-43
2022/04/22 01:32:22;;;;;;;9.40;6.85;;;12.80;48.70;;;;;;4978276;28;20061;-43
2022/04/22 01:34:49;;;;;;;10.52;7.25;;;12.70;48.70;;;;;;4981865;28;20050;-42
2022/04/22 01:37:17;;;;;;;13.10;8.55;;;12.70;48.80;;;;;;4979348;28;20058;-42
2022/04/22 01:39:46;;;;;;;16.60;9.23;;;12.60;48.90;;;;;;4978182;28;20065;-42
2022/04/22 01:42:13;;;;;;;16.27;9.13;;;12.60;49.30;;;;;;4977843;28;20058;-41
2022/04/22 01:44:41;;;;;;;12.98;8.57;;;12.60;49.40;;;;;;4982701;28;20054;-42
2022/04/22 01:47:09;;;;;;;14.68;8.88;;;12.60;49.50;;;;;;4981945;28;20054;-43
2022/04/22 01:49:36;;;;;;;10.88;7.32;;;12.60;49.50;;;;;;4979516;28;20050;-41
2022/04/22 01:52:04;;;;;;;11.70;7.57;;;12.50;49.50;;;;;;4980461;28;20054;-44
2022/04/22 01:54:31;;;;;;;11.95;8.05;;;12.50;49.60;;;;;;4982501;28;20065;-42
2022/04/22 01:57:00;;;;;;;12.75;8.68;;;12.50;49.50;;;;;;4981356;28;20499;-43
2022/04/22 01:59:28;;;;;;;11.45;7.65;;;12.50;49.50;;;;;;4980726;28;20183;-42
2022/04/22 02:01:55;;;;;;;11.38;7.57;;;12.50;49.50;;;;;;4979328;28;20050;-44
2022/04/22 02:04:22;;;;;;;12.68;8.63;;;12.50;49.50;;;;;;4979438;28;20414;-42
2022/04/22 02:06:50;;;;;;;10.68;8.00;;;12.50;49.60;;;;;;4982050;28;20054;-43
2022/04/22 02:09:17;;;;;;;14.40;8.25;;;12.40;49.60;;;;;;4982457;28;20062;-41
2022/04/22 02:11:45;;;;;;;16.95;9.93;;;12.40;49.70;;;;;;4979562;28;20057;-42
2022/04/22 02:14:14;;;;;;;12.02;8.85;;;12.40;49.80;;;;;;4981875;28;20057;-42
2022/04/22 02:16:41;;;;;;;13.38;8.68;;;12.40;50.00;;;;;;4981203;28;20070;-43
2022/04/22 02:19:09;;;;;;;13.48;8.10;;;12.40;50.00;;;;;;4978496;28;20054;-48
2022/04/22 02:21:37;;;;;;;10.80;8.05;;;12.40;49.90;;;;;;4979143;28;20062;-42
2022/04/22 02:24:05;;;;;;;13.80;8.05;;;12.40;49.80;;;;;;4981199;28;20058;-42
2022/04/22 02:28:31;;;;;;;12.02;8.02;;;12.40;49.90;;;;;;4981652;28;20064;-42
2022/04/22 02:29:21;;;;;;;17.70;9.80;;;12.30;49.80;;;;;;4980520;28;20058;-42
2022/04/22 02:31:52;;;;;;;12.95;8.18;;;12.30;50.00;;;;;;4978250;28;20086;-42
2022/04/22 02:34:20;;;;;;;14.73;8.70;;;12.30;49.90;;;;;;4979759;28;20798;-42
2022/04/22 02:36:48;;;;;;;14.13;8.85;;;12.30;49.90;;;;;;4982084;28;20061;-42
2022/04/22 02:39:15;;;;;;;11.20;8.18;;;12.30;50.30;;;;;;4980363;28;20058;-42
2022/04/22 02:47:15;;;;;;;13.73;8.85;;;12.20;49.90;;;;;;4980252;28;20061;-42
2022/04/22 02:49:44;;;;;;;15.10;9.73;;;12.20;49.80;;;;;;4980583;28;20065;-46
2022/04/22 02:52:12;;;;;;;15.05;9.68;;;12.20;49.80;;;;;;4979453;28;20058;-44
2022/04/22 02:54:39;;;;;;;15.13;8.38;;;12.10;49.90;;;;;;4980516;28;20069;-42
2022/04/22 02:57:08;;;;;;;15.52;8.98;;;12.10;49.90;;;;;;4980320;28;20486;-42
2022/04/22 02:59:39;;;;;;;15.73;9.75;;;12.00;49.90;;;;;;4979244;28;20050;-43
2022/04/22 03:02:08;;;;;;;16.17;9.63;;;12.00;50.00;;;;;;4978089;28;20408;-42
2022/04/22 03:04:36;;;;;;;17.08;9.32;;;12.00;50.00;;;;;;4978934;28;20054;-42
2022/04/22 03:07:03;;;;;;;14.25;9.20;;;12.00;50.10;;;;;;4980117;28;20506;-42
2022/04/22 03:09:31;;;;;;;17.50;10.60;;;12.00;50.10;;;;;;4982011;28;20058;-45
2022/04/22 03:11:59;;;;;;;14.95;10.05;;;11.90;50.30;;;;;;4978110;28;20058;-45
2022/04/22 03:14:26;;;;;;;17.83;10.75;;;11.90;50.30;;;;;;4981891;28;20062;-42
2022/04/22 03:16:55;;;;;;;20.65;11.63;;;11.90;50.40;;;;;;4980360;28;20092;-43
2022/04/22 03:19:23;;;;;;;13.95;9.57;;;11.90;50.50;;;;;;4979308;28;20788;-42
2022/04/22 03:21:50;;;;;;;16.98;10.35;;;11.80;50.40;;;;;;4975821;28;20063;-42
2022/04/22 03:24:18;;;;;;;18.13;11.65;;;11.80;50.50;;;;;;4980689;28;20058;-42
2022/04/22 03:26:45;;;;;;;19.13;11.85;;;11.80;50.50;;;;;;4981006;28;20050;-45
2022/04/22 03:29:13;;;;;;;17.20;10.65;;;11.80;50.50;;;;;;4980735;28;20406;-43
2022/04/22 03:31:40;;;;;;;19.52;12.35;;;11.70;50.50;;;;;;4977943;28;20065;-42
2022/04/22 03:34:09;;;;;;;21.42;12.20;;;11.70;50.50;;;;;;4979716;28;20062;-42
2022/04/22 03:36:36;;;;;;;19.50;12.77;;;11.70;50.70;;;;;;4980158;28;20061;-42
2022/04/22 03:39:04;;;;;;;20.55;12.27;;;11.70;50.70;;;;;;4979730;28;20050;-45
2022/04/22 03:41:33;;;;;;;21.08;12.10;;;11.70;50.70;;;;;;4975418;28;20719;-43
2022/04/22 03:44:00;;;;;;;18.77;11.18;;;11.70;50.70;;;;;;4980028;28;20066;-42
2022/04/22 03:46:30;;;;;;;23.90;12.38;;;11.70;50.60;;;;;;4982555;28;20066;-43
2022/04/22 03:49:00;;;;;;;23.83;14.15;;;11.60;50.50;;;;;;4983258;28;20418;-42
2022/04/22 03:51:29;;;;;;;20.40;13.02;;;11.60;50.70;;;;;;4981037;28;20050;-42
2022/04/22 03:53:57;;;;;;;20.50;12.95;;;11.60;50.70;;;;;;4983610;28;20057;-42
2022/04/22 03:59:09;;;;;;;19.92;12.98;;;11.50;50.80;;;;;;4985016;28;20410;-42
2022/04/22 04:01:37;;;;;;;28.10;14.90;;;11.50;50.90;;;;;;4981940;28;20050;-42
2022/04/22 04:04:04;;;;;;;20.27;12.15;;;11.50;51.10;;;;;;4982411;28;20414;-42
2022/04/22 04:06:35;;;;;;;20.88;12.75;;;11.50;51.10;;;;;;4985156;28;20065;-43
2022/04/22 04:17:17;;;;;;;24.80;13.60;;;11.50;51.90;;;;;;4983630;28;20050;-42
2022/04/22 04:25:16;;;;;;;29.50;14.25;;;11.40;51.50;;;;;;4987704;28;20061;-42
2022/04/22 04:27:44;;;;;;;28.48;15.75;;;11.40;51.60;;;;;;4983529;28;20065;-42
2022/04/22 04:30:13;;;;;;;23.50;13.57;;;11.40;51.70;;;;;;4983658;28;20069;-43
2022/04/22 04:32:40;;;;;;;25.27;14.70;;;11.30;51.90;;;;;;4981157;28;20058;-42
2022/04/22 04:35:08;;;;;;;23.52;13.60;;;11.30;52.00;;;;;;4982165;28;21657;-42
2022/04/22 04:37:42;;;;;;;24.77;13.88;;;11.30;52.00;;;;;;4983461;28;20081;-42
2022/04/22 04:40:10;;;;;;;21.63;12.57;;;11.30;52.10;;;;;;4983088;28;20405;-42
2022/04/22 04:42:37;;;;;;;23.63;13.48;;;11.30;52.00;;;;;;4982166;28;20054;-42
2022/04/22 04:45:06;;;;;;;27.38;15.27;;;11.30;52.00;;;;;;4981352;28;20054;-44
2022/04/22 04:47:40;;;;;;;37.20;19.38;;;11.30;52.20;;;;;;4980379;28;20291;-42
2022/04/22 04:50:09;;;;;;;35.03;18.73;;;11.30;52.60;;;;;;4982049;28;20061;-43
2022/04/22 04:52:37;;;;;;;31.92;17.98;;;11.30;52.50;;;;;;4977484;28;20520;-43
2022/04/22 04:55:07;;;;;;;23.85;13.77;;;11.30;52.70;;;;;;4982783;28;20054;-42
2022/04/22 04:57:35;;;;;;;24.95;14.52;;;11.30;52.80;;;;;;4983005;28;20928;-42
2022/04/22 05:00:05;;;;;;;24.60;14.85;;;11.40;52.80;;;;;;4979479;28;20062;-42
2022/04/22 05:02:32;;;;;;;24.63;15.02;;;11.40;53.00;;;;;;4975612;28;20057;-42
2022/04/22 05:05:00;;;;;;;24.42;13.93;;;11.40;53.00;;;;;;4981101;28;20585;-42
2022/04/22 05:07:28;;;;;;;25.50;14.77;;;11.40;53.00;;;;;;4981140;28;20061;-42
2022/04/22 05:09:55;;;;;;;21.88;13.02;;;11.50;53.20;;;;;;4980079;28;20422;-42
2022/04/22 05:12:24;;;;;;;24.48;13.25;;;11.50;53.20;;;;;;4981073;28;20058;-44
2022/04/22 05:14:52;;;;;;;30.05;16.40;;;11.50;53.20;;;;;;4983783;28;20510;-42
2022/04/22 05:17:19;;;;;;;32.13;16.13;;;11.50;53.20;;;;;;4982147;28;20050;-43
2022/04/22 05:19:47;;;;;;;27.55;15.82;;;11.60;53.40;;;;;;4979511;28;20057;-43
2022/04/22 05:22:14;;;;;;;25.42;14.60;;;11.60;53.40;;;;;;4979184;28;20085;-42
2022/04/22 05:24:41;;;;;;;23.38;14.35;;;11.70;53.40;;;;;;4982484;28;20050;-42
2022/04/22 05:27:09;;;;;;;24.17;13.93;;;11.70;53.30;;;;;;4983791;28;20522;-43
2022/04/22 05:32:37;;;;;;;26.15;15.02;;;11.80;53.40;;;;;;4987676;28;20522;-42
2022/04/22 05:35:06;;;;;;;24.15;14.85;;;11.80;53.40;;;;;;4980024;28;20426;-42
2022/04/22 05:37:44;;;;;;;23.45;13.95;;;11.90;53.40;;;;;;4982732;28;20517;-42
2022/04/22 05:40:13;;;;;;;28.30;15.48;;;11.90;53.60;;;;;;4981619;28;20426;-42
2022/04/22 05:42:41;;;;;;;23.45;13.68;;;12.00;53.40;;;;;;4982500;28;20065;-42
2022/04/22 05:45:12;;;;;;;22.73;13.02;;;12.10;53.40;;;;;;4981880;28;20057;-42
2022/04/22 05:47:40;;;;;;;23.05;13.25;;;12.10;53.30;;;;;;4980132;28;20513;-44
2022/04/22 05:50:09;;;;;;;21.63;13.10;;;12.20;53.30;;;;;;4981148;28;20057;-42
2022/04/22 05:52:38;;;;;;;21.55;13.23;;;12.20;53.20;;;;;;4978977;28;20050;-44
2022/04/22 05:55:08;;;;;;;22.75;13.10;;;12.30;53.20;;;;;;4980047;28;20436;-42
2022/04/22 05:57:37;;;;;;;21.52;13.43;;;12.30;53.20;;;;;;4980246;28;20073;-42
2022/04/22 06:00:07;;;;;;;22.85;13.07;;;12.40;53.20;;;;;;4981835;28;20509;-44
2022/04/22 06:02:36;;;;;;;24.23;13.10;;;12.50;53.30;;;;;;4975889;28;20050;-45
2022/04/22 06:05:04;;;;;;;18.98;11.82;;;12.50;53.10;;;;;;4977779;28;20434;-46
2022/04/22 06:07:32;;;;;;;20.13;11.60;;;12.60;52.90;;;;;;4981147;28;20494;-44
2022/04/22 06:12:44;;;;;;;18.48;10.73;;;12.70;52.60;;;;;;4983409;28;20056;-44
2022/04/22 06:15:11;;;;;;;18.42;10.40;;;12.80;52.40;;;;;;4981328;28;20341;-44
2022/04/22 06:17:40;;;;;;;17.58;10.85;;;12.90;52.20;;;;;;4982791;28;20533;-44
2022/04/22 06:20:09;;;;;;;19.00;11.32;;;13.00;52.20;;;;;;4977482;28;20046;-46
2022/04/22 06:22:36;;;;;;;17.30;10.85;;;13.00;52.20;;;;;;4975192;28;20050;-45
2022/04/22 06:25:05;;;;;;;22.10;10.88;;;13.10;52.20;;;;;;4979434;28;20413;-44
2022/04/22 06:27:35;;;;;;;17.95;10.95;;;13.20;52.00;;;;;;4980612;28;20402;-43
2022/04/22 06:30:07;;;;;;;19.13;11.05;;;13.30;51.90;;;;;;4981569;28;20057;-45
2022/04/22 06:32:35;;;;;;;18.88;10.88;;;13.30;51.70;;;;;;4974055;28;20066;-44
2022/04/22 06:35:05;;;;;;;18.77;11.25;;;13.40;51.60;;;;;;4976258;28;20058;-44
2022/04/22 06:37:35;;;;;;;16.58;10.73;;;13.50;51.60;;;;;;4979405;28;20046;-47
2022/04/22 06:45:47;;;;;;;20.58;11.80;;;13.70;51.10;;;;;;4988007;28;20085;-45
2022/04/22 06:48:16;;;;;;;16.25;10.23;;;13.80;50.90;;;;;;4978946;28;20430;-44
2022/04/22 06:50:46;;;;;;;15.57;10.00;;;13.80;50.70;;;;;;4977643;28;20054;-44
2022/04/22 06:53:15;;;;;;;16.33;9.93;;;13.90;50.70;;;;;;4979734;28;20058;-44
2022/04/22 06:55:44;;;;;;;15.18;9.60;;;13.90;50.70;;;;;;4980519;28;20510;-47
2022/04/22 06:58:12;;;;;;;16.25;10.30;;;13.90;50.60;;;;;;4981368;28;20050;-44
2022/04/22 07:00:40;;;;;;;15.63;10.00;;;14.00;50.60;;;;;;4979461;28;20050;-44
2022/04/22 07:03:09;;;;;;;15.70;10.50;;;14.10;50.60;;;;;;4975749;28;20062;-44
2022/04/22 07:05:38;;;;;;;16.30;9.27;;;14.10;50.60;;;;;;4978723;28;20502;-44
2022/04/22 07:08:13;;;;;;;13.98;9.25;;;14.20;50.60;;;;;;4980939;28;20062;-46
2022/04/22 07:10:41;;;;;;;15.10;9.77;;;14.20;50.40;;;;;;4980321;28;20054;-44
2022/04/22 07:13:10;;;;;;;16.73;10.57;;;14.30;50.30;;;;;;4979392;28;20418;-46
2022/04/22 07:15:38;;;;;;;15.35;9.93;;;14.40;50.20;;;;;;4973606;28;20061;-44
2022/04/22 07:18:07;;;;;;;16.58;9.95;;;14.40;50.10;;;;;;4978233;28;20058;-47
2022/04/22 07:20:35;;;;;;;17.77;10.70;;;14.40;49.80;;;;;;4982165;28;20054;-44
2022/04/22 07:23:03;;;;;;;15.50;10.23;;;14.50;49.50;;;;;;4981430;28;20065;-45
2022/04/22 07:25:32;;;;;;;16.58;10.15;;;14.50;49.40;;;;;;4985293;28;20054;-45
2022/04/22 07:28:01;;;;;;;13.43;9.05;;;14.60;49.10;;;;;;4985477;28;20530;-44
2022/04/22 07:30:28;;;;;;;13.63;9.15;;;14.60;48.90;;;;;;4980721;28;20046;-46
2022/04/22 07:32:56;;;;;;;13.40;9.07;;;14.60;48.90;;;;;;4980336;28;20058;-45
2022/04/22 07:35:24;;;;;;;14.65;9.07;;;14.70;48.80;;;;;;4984788;28;20109;-48
2022/04/22 07:37:53;;;;;;;15.30;9.65;;;14.70;48.70;;;;;;4984327;28;20510;-49
2022/04/22 07:40:22;;;;;;;13.55;9.25;;;14.70;48.60;;;;;;4979066;28;20057;-45
2022/04/22 07:48:36;;;;;;;14.18;9.10;;;14.90;48.80;;;;;;4942167;28;20051;-44
2022/04/22 07:51:04;;;;;;;14.10;8.68;;;15.00;48.70;;;;;;4966840;28;20050;-45
2022/04/22 07:53:32;;;;;;;14.40;8.57;;;15.10;48.60;;;;;;4981674;28;20062;-46
2022/04/22 07:56:00;;;;;;;12.70;7.95;;;15.10;49.00;;;;;;4981753;28;20046;-44
2022/04/22 07:58:29;;;;;;;15.35;8.07;;;15.20;48.30;;;;;;4983633;28;20073;-44
2022/04/22 08:00:57;;;;;;;11.20;8.00;;;15.20;48.00;;;;;;4981877;28;20062;-44
2022/04/22 08:03:24;;;;;;;13.07;8.25;;;15.30;47.90;;;;;;4978097;28;20054;-46
2022/04/22 08:05:52;;;;;;;14.77;8.20;;;15.30;47.90;;;;;;4982223;28;20053;-44
2022/04/22 08:08:19;;;;;;;12.10;7.80;;;15.40;47.50;;;;;;4982127;28;20050;-46
2022/04/22 08:10:47;;;;;;;11.20;7.85;;;15.40;47.30;;;;;;4978574;28;20061;-49
2022/04/22 08:13:15;;;;;;;11.45;7.97;;;15.50;47.30;;;;;;4979908;28;20421;-46
2022/04/22 08:15:44;;;;;;;11.57;8.43;;;15.50;47.10;;;;;;4980574;28;20057;-45
2022/04/22 08:18:11;;;;;;;11.98;8.13;;;15.50;46.60;;;;;;4983069;28;20050;-44
2022/04/22 08:20:39;;;;;;;12.57;8.00;;;15.50;46.60;;;;;;4984566;28;20050;-45
2022/04/22 08:23:06;;;;;;;11.60;7.57;;;15.60;46.80;;;;;;4981559;28;20065;-46
2022/04/22 08:25:34;;;;;;;11.85;7.90;;;15.60;46.80;;;;;;4983629;28;20050;-44
2022/04/22 08:28:02;;;;;;;11.13;7.60;;;15.70;46.80;;;;;;4980227;28;20061;-45
2022/04/22 08:30:31;;;;;;;11.70;7.78;;;15.70;46.60;;;;;;4982659;28;20145;-46
2022/04/22 08:33:01;;;;;;;9.32;7.20;;;15.80;46.40;;;;;;4979115;28;20422;-44
2022/04/22 08:35:28;;;;;;;15.57;7.53;;;15.90;46.20;;;;;;4984198;28;20513;-44
2022/04/22 08:37:59;;;;;;;12.20;8.18;;;16.00;46.40;;;;;;4981159;28;20051;-45
2022/04/22 08:40:27;;;;;;;11.85;7.88;;;16.00;45.80;;;;;;4983090;28;20378;-45
2022/04/22 08:42:57;;;;;;;11.57;7.97;;;16.10;45.50;;;;;;4977519;28;20088;-46
2022/04/22 08:45:26;;;;;;;12.18;8.38;;;16.20;45.20;;;;;;4983068;28;20055;-46
2022/04/22 08:50:41;;;;;;;;;;;16.30;44.80;;;;;;4990903;28;20414;-44
2022/04/22 08:53:12;;;;;;;9.10;6.93;;;16.40;45.00;;;;;;4980391;28;19928;-44
2022/04/22 08:55:42;;;;;;;11.27;7.60;;;16.40;44.80;;;;;;4982464;28;20050;-45
2022/04/22 08:58:11;;;;;;;11.07;7.45;;;16.50;45.00;;;;;;4981044;28;20058;-47
2022/04/22 09:00:41;;;;;;;10.25;7.20;;;16.50;44.70;;;;;;4980455;28;20051;-44
2022/04/22 09:03:09;;;;;;;11.43;7.45;;;16.60;44.70;;;;;;4977744;28;20050;-45
2022/04/22 09:05:37;;;;;;;9.20;6.90;;;16.60;44.70;;;;;;4981713;28;20065;-46
2022/04/22 09:08:08;;;;;;;14.23;7.55;;;16.70;44.70;;;;;;4982448;28;20832;-44
2022/04/22 09:10:38;;;;;;;10.95;7.30;;;16.70;44.70;;;;;;4983725;28;20058;-44
2022/04/22 09:13:09;;;;;;;11.55;8.18;;;16.80;44.90;;;;;;4979706;28;20121;-44
2022/04/22 09:15:39;;;;;;;11.50;7.57;;;16.90;44.80;;;;;;4981085;28;20414;-45
2022/04/22 09:18:11;;;;;;;12.70;7.78;;;17.00;44.40;;;;;;4980434;28;20069;-48
2022/04/22 09:20:39;;;;;;;10.18;7.15;;;17.10;44.20;;;;;;4980880;28;20410;-45
2022/04/22 09:23:24;;;;;;;11.73;8.20;;;17.10;44.10;;;;;;4980532;28;20061;-44
2022/04/22 09:25:51;;;;;;;10.82;8.20;;;17.20;44.00;;;;;;4983657;28;20058;-45
2022/04/22 09:28:19;;;;;;;11.43;8.15;;;17.30;43.70;;;;;;4981490;28;20065;-44
2022/04/22 09:30:56;;;;;;;13.02;8.60;;;17.30;43.20;;;;;;4980831;28;20192;-44
2022/04/22 09:33:24;;;;;;;11.13;7.55;;;17.30;42.80;;;;;;4979201;28;20065;-46
2022/04/22 09:44:24;;;;;;;11.18;8.15;;;17.40;42.70;;;;;;4980531;28;20055;-45
2022/04/22 09:47:11;;;;;;;13.98;7.85;;;17.40;42.40;;;;;;4982160;28;20058;-44
2022/04/22 09:49:40;;;;;;;10.52;7.57;;;17.40;42.50;;;;;;4980866;28;20061;-44
2022/04/22 09:52:08;;;;;;;9.18;7.00;;;17.50;42.80;;;;;;4979582;28;20054;-47
2022/04/22 09:54:38;;;;;;;9.95;7.55;;;17.50;42.50;;;;;;4982075;28;20054;-44
2022/04/22 09:57:06;;;;;;;12.45;8.13;;;17.50;42.50;;;;;;4982179;28;20142;-44
2022/04/22 09:59:35;;;;;;;11.38;8.07;;;17.50;42.30;;;;;;4981510;28;20057;-44
2022/04/22 10:02:04;;;;;;;10.82;8.13;;;17.50;42.00;;;;;;4979980;28;20973;-47
2022/04/22 10:04:33;;;;;;;11.88;8.25;;;17.50;42.00;;;;;;4980911;28;20061;-45
2022/04/22 10:07:02;;;;;;;11.02;7.75;;;17.50;42.10;;;;;;4981687;28;20058;-44
2022/04/22 10:09:30;;;;;;;12.13;8.10;;;17.60;42.70;;;;;;4979811;28;20501;-45
2022/04/22 10:12:00;;;;;;;13.30;8.73;;;17.50;42.70;;;;;;4980833;28;20050;-44
2022/04/22 10:14:36;;;;;;;10.63;8.25;;;17.60;42.80;;;;;;4980310;28;20715;-44
2022/04/22 10:17:05;;;;;;;11.13;7.90;;;17.60;42.40;;;;;;4977418;28;20082;-44
2022/04/22 10:19:34;;;;;;;10.63;7.82;;;17.70;42.90;;;;;;4980304;28;20061;-45
2022/04/22 10:22:03;;;;;;;11.52;8.20;;;17.70;42.70;;;;;;4980537;28;20054;-46
2022/04/22 10:24:32;;;;;;;12.60;8.88;;;17.80;42.20;;;;;;4979604;28;20054;-44
2022/04/22 10:27:02;;;;;;;11.88;9.05;;;17.80;41.50;;;;;;4981291;28;20058;-46
2022/04/22 10:29:31;;;;;;;12.60;8.57;;;17.80;41.30;;;;;;4980909;28;20058;-46
2022/04/22 10:31:59;;;;;;;11.20;7.93;;;17.80;41.30;;;;;;4978077;28;20609;-44
2022/04/22 10:34:40;;;;;;;12.63;8.13;;;17.80;41.30;;;;;;4978948;28;20069;-45
2022/04/22 10:37:18;;;;;;;11.82;9.15;;;17.70;41.20;;;;;;4981621;28;20046;-45
2022/04/22 10:39:51;;;;;;;12.65;9.30;;;17.70;41.30;;;;;;4980202;28;20054;-44
2022/04/22 10:42:19;;;;;;;11.45;8.65;;;17.60;41.30;;;;;;4978174;28;20046;-46
2022/04/22 10:47:43;;;;;;;12.70;9.13;;;17.60;41.70;;;;;;4986165;28;20061;-44
2022/04/22 10:50:25;;;;;;;11.02;8.40;;;17.60;41.50;;;;;;4979617;28;20499;-44
2022/04/22 10:53:04;;;;;;;11.13;7.95;;;17.60;41.90;;;;;;4979017;28;20057;-45
2022/04/22 10:55:36;;;;;;;13.68;9.15;;;17.60;42.20;;;;;;4980329;28;20054;-45
2022/04/22 10:58:24;;;;;;;10.43;8.30;;;17.70;42.10;;;;;;4980112;28;20054;-44
2022/04/22 11:00:58;;;;;;;12.38;8.70;;;17.80;42.00;;;;;;4979091;28;20422;-45
2022/04/22 11:03:27;;;;;;;10.47;7.83;;;17.80;41.60;;;;;;4977475;28;20054;-46
2022/04/22 11:05:58;;;;;;;10.73;7.65;;;17.80;41.50;;;;;;4980994;28;20414;-45
2022/04/22 11:08:29;;;;;;;13.43;9.13;;;17.90;41.40;;;;;;4980464;28;20054;-44
2022/04/22 11:11:05;;;;;;;11.52;8.55;;;17.90;41.20;;;;;;4981503;28;20054;-45
2022/04/22 11:13:39;;;;;;;13.95;9.57;;;17.90;41.10;;;;;;4974381;28;20053;-44
2022/04/22 11:16:07;;;;;;;;;;;17.90;41.20;;;;;;4979932;28;20069;-44
2022/04/22 11:18:36;;;;;;;11.60;8.73;;;17.90;41.50;;;;;;4977817;28;19921;-44
2022/04/22 11:21:05;;;;;;;11.95;8.73;;;18.00;41.60;;;;;;4978879;28;20529;-44
2022/04/22 11:23:37;;;;;;;12.70;9.13;;;18.00;41.60;;;;;;4978828;28;20065;-44
2022/04/22 11:26:05;;;;;;;13.57;9.27;;;18.00;41.30;;;;;;4981736;28;20046;-45
2022/04/22 11:28:37;;;;;;;12.82;9.18;;;18.10;41.30;;;;;;4980360;28;20065;-44
2022/04/22 11:31:07;;;;;;;9.85;8.00;;;18.20;41.10;;;;;;4980117;28;20057;-44
2022/04/22 11:34:05;;;;;;;13.13;8.57;;;18.30;41.30;;;;;;4975754;28;20065;-45
2022/04/22 11:36:43;;;;;;;10.75;8.48;;;18.30;41.20;;;;;;4957336;28;20513;-44
2022/04/22 11:39:17;;;;;;;13.52;9.95;;;18.40;41.20;;;;;;4981640;28;20502;-44
2022/04/22 11:41:57;;;;;;;13.80;9.40;;;18.50;40.50;;;;;;4978051;28;20054;-44
2022/04/22 11:44:26;;;;;;;13.32;9.20;;;18.60;40.10;;;;;;4981389;28;20054;-46
2022/04/22 11:46:54;;;;;;;13.25;9.73;;;18.60;40.00;;;;;;4980621;28;20058;-44
2022/04/22 11:49:23;;;;;;;15.02;10.13;;;18.60;40.10;;;;;;4975803;28;20058;-45
2022/04/22 11:51:54;;;;;;;12.57;8.73;;;18.70;39.90;;;;;;4976861;28;20054;-44
2022/04/22 11:54:25;;;;;;;11.65;8.63;;;18.70;39.90;;;;;;4981159;28;20050;-44
2022/04/22 11:56:53;;;;;;;13.55;9.32;;;18.70;40.20;;;;;;4979935;28;20058;-44
2022/04/22 11:59:20;;;;;;;13.38;8.93;;;18.70;40.20;;;;;;4979876;28;20409;-44
2022/04/22 12:10:12;;;;;;;13.80;8.85;;;18.80;40.30;;;;;;4989313;28;20053;-46
2022/04/22 12:12:49;;;;;;;10.57;7.68;;;18.80;39.70;;;;;;4981002;28;20517;-44
2022/04/22 12:15:19;;;;;;;14.70;8.63;;;18.80;39.70;;;;;;4982931;28;20058;-47
2022/04/22 12:17:48;;;;;;;13.57;8.32;;;18.90;39.40;;;;;;4982734;28;20058;-45
2022/04/22 12:20:16;;;;;;;12.68;7.90;;;18.90;39.20;;;;;;4980760;28;20054;-44
2022/04/22 12:22:44;;;;;;;9.82;7.55;;;19.00;39.00;;;;;;4982331;28;20050;-42
2022/04/22 12:25:14;;;;;;;11.85;8.40;;;19.00;39.20;;;;;;4983427;28;20066;-42
2022/04/22 12:27:42;;;;;;;10.48;7.80;;;18.90;39.00;;;;;;4983393;28;20604;-42
2022/04/22 12:30:11;;;;;;;9.30;7.63;;;19.00;39.40;;;;;;4983079;28;20060;-46
2022/04/22 12:32:40;;;;;;;10.77;8.15;;;19.00;39.60;;;;;;4980466;28;20061;-41
2022/04/22 12:35:15;;;;;;;11.07;8.18;;;19.00;39.90;;;;;;4979544;28;20053;-41
2022/04/22 12:37:46;;;;;;;12.30;7.55;;;19.10;39.80;;;;;;4979363;28;20081;-42
2022/04/22 12:40:15;;;;;;;14.52;7.82;;;19.20;39.80;;;;;;4980262;28;20054;-41
2022/04/22 12:42:42;;;;;;;11.35;7.80;;;19.30;39.80;;;;;;4978977;28;20054;-44
2022/04/22 12:53:35;;;;;;;11.65;7.90;;;19.50;38.40;;;;;;4984405;28;20509;-42
2022/04/22 12:56:05;;;;;;;12.85;7.50;;;19.50;38.50;;;;;;4984383;28;20054;-42
2022/04/22 12:58:33;;;;;;;11.38;8.07;;;19.60;38.30;;;;;;4983420;28;20142;-42
2022/04/22 13:01:04;;;;;;;11.10;7.63;;;19.50;38.00;;;;;;4980459;28;20510;-42
2022/04/22 13:03:37;;;;;;;21.17;8.00;;;19.50;38.20;;;;;;4980249;28;20078;-41
2022/04/22 13:06:06;;;;;;;11.40;7.97;;;19.50;37.90;;;;;;4983189;28;20410;-41
2022/04/22 13:08:33;;;;;;;10.13;7.47;;;19.50;38.20;;;;;;4983146;28;20050;-42
2022/04/22 13:11:02;;;;;;;12.90;8.77;;;19.40;38.40;;;;;;4980791;28;20526;-42
2022/04/22 13:13:29;;;;;;;11.75;8.13;;;19.40;38.30;;;;;;4980772;28;20054;-41
2022/04/22 13:15:59;;;;;;;9.38;7.18;;;19.40;38.30;;;;;;4980173;28;20054;-42
2022/04/22 13:18:27;;;;;;;8.10;6.25;;;19.40;38.10;;;;;;4977794;28;20058;-42
2022/04/22 13:20:55;;;;;;;8.60;5.68;;;19.40;37.90;;;;;;4981614;28;20340;-45
2022/04/22 13:23:24;;;;;;;9.65;6.30;;;19.40;38.10;;;;;;4981160;28;20050;-41
2022/04/22 13:25:51;;;;;;;8.27;6.18;;;19.40;38.30;;;;;;4981859;28;20514;-41
2022/04/22 13:28:19;;;;;;;7.70;6.22;;;19.40;38.10;;;;;;4981944;28;20057;-46
2022/04/22 13:30:46;;;;;;;8.75;6.43;;;19.40;38.20;;;;;;4980365;28;20499;-43
2022/04/22 13:33:14;;;;;;;10.52;7.22;;;19.40;38.40;;;;;;4980364;28;20087;-42
2022/04/22 13:35:41;;;;;;;9.23;6.20;;;19.40;37.90;;;;;;4981939;28;20073;-41
2022/04/22 13:38:09;;;;;;;8.45;6.15;;;19.50;38.00;;;;;;4979818;28;20065;-41
2022/04/22 13:40:37;;;;;;;6.85;5.50;;;19.50;37.70;;;;;;4981734;28;20442;-41
2022/04/22 13:43:05;;;;;;;11.23;6.82;;;19.50;37.90;;;;;;4978844;28;20429;-41
2022/04/22 13:53:52;;;;;;;7.40;5.70;;;19.50;38.00;;;;;;4986539;28;20053;-41
2022/04/22 13:56:21;;;;;;;5.80;5.05;;;19.60;37.90;;;;;;4982068;28;20361;-42
2022/04/22 13:58:48;;;;;;;10.70;5.78;;;19.60;37.90;;;;;;4981660;28;20379;-41
2022/04/22 14:01:15;;;;;;;6.78;5.47;;;19.70;38.00;;;;;;4979463;28;20058;-43
2022/04/22 14:03:43;;;;;;;7.47;5.82;;;19.80;38.00;;;;;;4978176;28;20050;-42
2022/04/22 14:06:10;;;;;;;7.53;5.47;;;19.80;37.50;;;;;;4980055;28;20521;-41
2022/04/22 14:08:38;;;;;;;6.35;5.22;;;19.90;37.20;;;;;;4979508;28;20054;-41